Time;durP1;ratioP1;P1;durP2;ratioP2;P2;SDS_P1;SDS_P2;PMS_P1;PMS_P2;Temp;Humidity;BMP_temperature;BMP_pressure;BME280_temperature;BME280_humidity;BME280_pressure;Samples;Min_cycle;Max_cycle;Signal;HPM_P1;HPM_P2
2022/06/01 00:00:16;;;;;;;10.33;8.47;;;;;;;;;;738720;191;918767;-66
2022/06/01 00:02:42;;;;;;;9.17;7.00;;;;;;;;;;728227;189;919402;-66
2022/06/01 00:05:08;;;;;;;16.97;7.37;;;;;;;;;;735026;190;918224;-65
2022/06/01 00:07:33;;;;;;;8.63;6.07;;;;;;;;;;732300;190;914865;-66
2022/06/01 00:09:59;;;;;;;9.30;6.90;;;;;;;;;;730335;190;921548;-66
2022/06/01 00:12:25;;;;;;;8.87;7.07;;;;;;;;;;725894;190;919221;-66
2022/06/01 00:14:51;;;;;;;12.60;7.60;;;;;;;;;;725299;189;918990;-67
2022/06/01 00:17:17;;;;;;;13.00;6.83;;;;;;;;;;735295;189;919208;-65
2022/06/01 00:19:43;;;;;;;9.17;7.00;;;;;;;;;;723902;192;920234;-67
2022/06/01 00:22:12;;;;;;;11.50;6.90;;;;;;;;;;731032;190;919391;-66
2022/06/01 00:24:38;;;;;;;11.98;7.43;;;;;;;;;;731034;189;949534;-66
2022/06/01 00:27:04;;;;;;;9.27;6.43;;;;;;;;;;728139;189;1020634;-66
2022/06/01 00:29:30;;;;;;;6.50;5.20;;;;;;;;;;723868;189;919174;-69
2022/06/01 00:31:56;;;;;;;12.35;7.53;;;;;;;;;;725237;192;919572;-65
2022/06/01 00:34:21;;;;;;;13.23;5.30;;;;;;;;;;731144;190;919256;-64
2022/06/01 00:36:47;;;;;;;8.43;5.53;;;;;;;;;;725890;189;919568;-66
2022/06/01 00:39:13;;;;;;;7.70;5.10;;;;;;;;;;723440;189;919149;-67
2022/06/01 00:41:39;;;;;;;10.40;5.43;;;;;;;;;;731636;191;918884;-65
2022/06/01 00:44:05;;;;;;;6.63;4.70;;;;;;;;;;728928;189;919589;-63
2022/06/01 00:46:32;;;;;;;5.87;5.13;;;;;;;;;;725043;191;997398;-64
2022/06/01 00:48:56;;;;;;;8.43;5.03;;;;;;;;;;728432;191;934375;-65
2022/06/01 00:51:22;;;;;;;6.03;4.80;;;;;;;;;;725665;189;919291;-66
2022/06/01 00:53:48;;;;;;;4.90;4.40;;;;;;;;;;717386;189;1020508;-67
2022/06/01 00:56:15;;;;;;;4.80;3.57;;;;;;;;;;730716;189;916412;-65
2022/06/01 00:58:41;;;;;;;5.53;3.77;;;;;;;;;;720031;191;918071;-65
2022/06/01 01:01:08;;;;;;;3.90;2.90;;;;;;;;;;730938;187;917733;-67
2022/06/01 01:03:34;;;;;;;6.97;3.53;;;;;;;;;;726186;189;924086;-66
2022/06/01 01:06:00;;;;;;;4.50;2.63;;;;;;;;;;738807;186;927957;-66
2022/06/01 01:08:26;;;;;;;3.43;2.53;;;;;;;;;;725248;189;949548;-65
2022/06/01 01:10:52;;;;;;;2.90;2.10;;;;;;;;;;726319;190;923519;-66
2022/06/01 01:13:17;;;;;;;3.17;2.20;;;;;;;;;;732436;189;916576;-66
2022/06/01 01:15:51;;;;;;;2.53;1.77;;;;;;;;;;728499;190;916140;-66
2022/06/01 01:18:10;;;;;;;3.33;2.00;;;;;;;;;;729855;190;916188;-66
2022/06/01 01:20:40;;;;;;;5.40;2.20;;;;;;;;;;732770;190;921140;-66
2022/06/01 01:23:08;;;;;;;6.63;2.20;;;;;;;;;;743048;186;916500;-67
2022/06/01 01:25:34;;;;;;;3.47;2.40;;;;;;;;;;722815;190;919046;-68
2022/06/01 01:28:00;;;;;;;4.13;2.20;;;;;;;;;;732580;190;915513;-67
2022/06/01 01:30:26;;;;;;;5.37;3.17;;;;;;;;;;729433;190;919249;-67
2022/06/01 01:32:52;;;;;;;9.13;4.33;;;;;;;;;;728219;191;918426;-66
2022/06/01 01:35:18;;;;;;;3.47;2.70;;;;;;;;;;728060;190;920992;-64
2022/06/01 01:37:44;;;;;;;8.63;3.83;;;;;;;;;;733596;190;919905;-63
2022/06/01 01:40:10;;;;;;;6.70;4.20;;;;;;;;;;728157;191;918591;-66
2022/06/01 01:42:36;;;;;;;9.17;4.70;;;;;;;;;;720389;189;916976;-65
2022/06/01 01:45:03;;;;;;;7.03;4.60;;;;;;;;;;720319;189;921949;-65
2022/06/01 01:47:28;;;;;;;5.67;4.90;;;;;;;;;;729290;190;918737;-63
2022/06/01 01:49:55;;;;;;;5.10;4.10;;;;;;;;;;721864;189;947254;-62
2022/06/01 01:52:21;;;;;;;6.43;3.90;;;;;;;;;;722040;193;919498;-64
2022/06/01 01:54:48;;;;;;;6.50;3.50;;;;;;;;;;733959;190;1022169;-65
2022/06/01 01:57:14;;;;;;;6.00;4.40;;;;;;;;;;730596;189;919165;-63
2022/06/01 01:59:40;;;;;;;5.60;4.67;;;;;;;;;;730430;190;917789;-63
2022/06/01 02:02:06;;;;;;;5.93;5.00;;;;;;;;;;733358;191;922290;-64
2022/06/01 02:07:06;;;;;;;4.90;4.30;;;;;;;;;;728629;191;920068;-65
2022/06/01 02:12:40;;;;;;;4.90;4.00;;;;;;;;;;729649;191;919445;-66
2022/06/01 02:14:30;;;;;;;7.90;4.30;;;;;;;;;;735633;189;910680;-68
2022/06/01 02:16:57;;;;;;;5.50;4.10;;;;;;;;;;721664;191;916904;-67
2022/06/01 02:19:23;;;;;;;6.63;4.30;;;;;;;;;;728303;191;918926;-68
2022/06/01 02:21:49;;;;;;;4.47;3.60;;;;;;;;;;730773;191;913562;-69
2022/06/01 02:24:15;;;;;;;6.57;4.67;;;;;;;;;;730467;190;911965;-69
2022/06/01 02:26:41;;;;;;;6.83;4.47;;;;;;;;;;735824;190;910933;-69
2022/06/01 02:29:08;;;;;;;4.87;4.05;;;;;;;;;;734529;190;910639;-68
2022/06/01 02:31:34;;;;;;;7.37;4.53;;;;;;;;;;748252;186;907422;-69
2022/06/01 02:34:00;;;;;;;5.30;3.97;;;;;;;;;;735995;190;919279;-70
2022/06/01 02:36:26;;;;;;;4.50;3.93;;;;;;;;;;722664;189;918788;-71
2022/06/01 02:38:51;;;;;;;5.80;4.70;;;;;;;;;;727920;190;918868;-69
2022/06/01 02:43:49;;;;;;;4.83;3.63;;;;;;;;;;731481;191;1021916;-70
2022/06/01 02:46:15;;;;;;;4.37;3.30;;;;;;;;;;722290;189;920251;-68
2022/06/01 02:48:43;;;;;;;5.97;4.30;;;;;;;;;;722902;194;918395;-70
2022/06/01 02:51:06;;;;;;;4.97;4.10;;;;;;;;;;724584;189;918967;-70
2022/06/01 02:53:32;;;;;;;5.12;3.92;;;;;;;;;;725018;192;919466;-70
2022/06/01 02:55:58;;;;;;;7.03;4.67;;;;;;;;;;728223;191;918790;-71
2022/06/01 02:58:24;;;;;;;5.27;4.17;;;;;;;;;;731680;190;919524;-70
2022/06/01 03:00:50;;;;;;;12.23;4.80;;;;;;;;;;733205;190;919186;-70
2022/06/01 03:03:16;;;;;;;6.47;4.50;;;;;;;;;;730868;191;919597;-70
2022/06/01 03:05:41;;;;;;;7.80;5.03;;;;;;;;;;725841;189;918976;-70
2022/06/01 03:08:07;;;;;;;4.90;3.80;;;;;;;;;;723475;191;1021256;-70
2022/06/01 03:10:33;;;;;;;8.50;4.00;;;;;;;;;;730761;190;919187;-70
2022/06/01 03:12:59;;;;;;;4.97;4.47;;;;;;;;;;727872;191;939955;-70
2022/06/01 03:15:25;;;;;;;6.60;4.17;;;;;;;;;;729199;191;927218;-70
2022/06/01 03:17:51;;;;;;;6.17;5.13;;;;;;;;;;718279;191;918870;-70
2022/06/01 03:20:17;;;;;;;7.63;4.60;;;;;;;;;;731922;191;920162;-73
2022/06/01 03:22:43;;;;;;;5.87;4.60;;;;;;;;;;725477;191;911686;-72
2022/06/01 03:25:08;;;;;;;4.85;4.20;;;;;;;;;;722695;191;1840676;-70
2022/06/01 03:27:34;;;;;;;6.33;5.00;;;;;;;;;;730674;191;919844;-70
2022/06/01 03:30:00;;;;;;;6.57;5.03;;;;;;;;;;728821;189;995932;-70
2022/06/01 03:32:27;;;;;;;5.00;4.37;;;;;;;;;;728914;191;919194;-70
2022/06/01 03:34:53;;;;;;;5.63;4.63;;;;;;;;;;729267;191;919476;-67
2022/06/01 03:37:19;;;;;;;5.40;4.53;;;;;;;;;;729974;188;919366;-65
2022/06/01 03:39:44;;;;;;;5.23;4.67;;;;;;;;;;726523;189;1014850;-67
2022/06/01 03:42:10;;;;;;;5.90;4.80;;;;;;;;;;727226;190;933766;-69
2022/06/01 03:47:10;;;;;;;9.00;5.07;;;;;;;;;;728657;190;920541;-69
2022/06/01 03:49:35;;;;;;;4.80;4.40;;;;;;;;;;724604;190;1021329;-70
2022/06/01 03:52:01;;;;;;;10.10;5.17;;;;;;;;;;731003;190;918214;-70
2022/06/01 03:54:27;;;;;;;8.07;4.63;;;;;;;;;;731603;190;919541;-70
2022/06/01 03:56:53;;;;;;;5.87;4.83;;;;;;;;;;733569;190;919606;-69
2022/06/01 03:59:19;;;;;;;5.90;5.30;;;;;;;;;;729493;191;919511;-69
2022/06/01 04:01:45;;;;;;;6.83;5.57;;;;;;;;;;733579;190;919411;-69
2022/06/01 04:04:10;;;;;;;5.63;4.77;;;;;;;;;;728308;189;918442;-68
2022/06/01 04:06:36;;;;;;;5.65;5.05;;;;;;;;;;727457;190;916032;-69
2022/06/01 04:09:02;;;;;;;6.40;5.40;;;;;;;;;;733048;190;915188;-69
2022/06/01 04:11:28;;;;;;;9.17;6.13;;;;;;;;;;728657;190;921909;-70
2022/06/01 04:13:54;;;;;;;8.70;5.77;;;;;;;;;;732228;189;919550;-70
2022/06/01 04:16:20;;;;;;;9.30;6.10;;;;;;;;;;737322;187;618864;-71
2022/06/01 04:18:46;;;;;;;7.43;5.30;;;;;;;;;;732333;191;622403;-71
2022/06/01 04:21:11;;;;;;;9.55;6.80;;;;;;;;;;733092;189;689460;-70
2022/06/01 04:23:37;;;;;;;7.43;5.97;;;;;;;;;;726012;191;919494;-71
2022/06/01 04:26:03;;;;;;;7.23;5.83;;;;;;;;;;736946;191;918441;-71
2022/06/01 04:28:29;;;;;;;7.70;6.40;;;;;;;;;;725957;191;1020781;-71
2022/06/01 04:30:55;;;;;;;8.23;6.10;;;;;;;;;;727185;190;918988;-71
2022/06/01 04:33:21;;;;;;;10.80;6.90;;;;;;;;;;731961;190;918633;-71
2022/06/01 04:35:46;;;;;;;7.60;6.80;;;;;;;;;;724958;191;920265;-72
2022/06/01 04:38:12;;;;;;;6.53;5.90;;;;;;;;;;731106;191;893909;-71
2022/06/01 04:40:38;;;;;;;8.87;6.40;;;;;;;;;;728835;190;919994;-71
2022/06/01 04:43:04;;;;;;;8.00;6.53;;;;;;;;;;728278;191;919622;-70
2022/06/01 04:45:30;;;;;;;8.90;5.77;;;;;;;;;;725987;189;1021752;-71
2022/06/01 04:47:56;;;;;;;8.27;5.93;;;;;;;;;;729449;189;1019786;-69
2022/06/01 04:50:22;;;;;;;5.47;4.90;;;;;;;;;;737837;190;693340;-71
2022/06/01 04:52:48;;;;;;;6.07;5.33;;;;;;;;;;733574;189;637197;-71
2022/06/01 04:55:13;;;;;;;5.20;4.70;;;;;;;;;;731844;190;632120;-72
2022/06/01 04:57:39;;;;;;;7.67;5.40;;;;;;;;;;722547;192;620920;-70
2022/06/01 05:00:06;;;;;;;7.97;5.10;;;;;;;;;;705838;196;638138;-69
2022/06/01 05:02:31;;;;;;;5.73;4.93;;;;;;;;;;725479;190;1020822;-71
2022/06/01 05:04:57;;;;;;;8.83;6.33;;;;;;;;;;729886;190;918010;-71
2022/06/01 05:07:23;;;;;;;7.30;6.50;;;;;;;;;;726285;190;919532;-70
2022/06/01 05:09:49;;;;;;;9.10;7.47;;;;;;;;;;726402;189;919638;-70
2022/06/01 05:12:15;;;;;;;7.23;6.40;;;;;;;;;;727789;192;919210;-69
2022/06/01 05:14:41;;;;;;;8.03;6.03;;;;;;;;;;726678;190;919619;-69
2022/06/01 05:17:06;;;;;;;15.00;6.17;;;;;;;;;;730515;190;920300;-70
2022/06/01 05:19:32;;;;;;;6.07;5.13;;;;;;;;;;732313;190;919901;-70
2022/06/01 05:21:59;;;;;;;5.43;4.63;;;;;;;;;;732982;190;1021915;-69
2022/06/01 05:24:24;;;;;;;6.78;4.00;;;;;;;;;;727556;190;919350;-70
2022/06/01 05:26:50;;;;;;;7.73;4.37;;;;;;;;;;728195;191;919197;-70
2022/06/01 05:29:16;;;;;;;7.90;5.20;;;;;;;;;;731030;190;944016;-70
2022/06/01 05:31:41;;;;;;;6.72;4.25;;;;;;;;;;726032;191;918476;-71
2022/06/01 05:34:07;;;;;;;5.37;4.50;;;;;;;;;;734395;189;919652;-71
2022/06/01 05:36:33;;;;;;;5.20;4.70;;;;;;;;;;732758;190;671635;-70
2022/06/01 05:38:59;;;;;;;5.80;4.90;;;;;;;;;;730715;190;635141;-71
2022/06/01 05:41:26;;;;;;;7.67;5.77;;;;;;;;;;731293;189;636801;-70
2022/06/01 05:43:51;;;;;;;8.23;7.20;;;;;;;;;;726827;190;919420;-70
2022/06/01 05:46:17;;;;;;;7.63;6.00;;;;;;;;;;738594;186;919085;-70
2022/06/01 05:48:42;;;;;;;7.18;5.62;;;;;;;;;;726797;191;920369;-69
2022/06/01 05:51:08;;;;;;;9.47;7.57;;;;;;;;;;725572;190;918404;-70
2022/06/01 05:53:34;;;;;;;7.07;6.37;;;;;;;;;;730314;189;919352;-69
2022/06/01 05:56:00;;;;;;;8.03;6.73;;;;;;;;;;725254;189;919138;-69
2022/06/01 05:58:26;;;;;;;11.35;8.52;;;;;;;;;;727525;189;919730;-70
2022/06/01 06:00:52;;;;;;;8.82;7.70;;;;;;;;;;733869;189;918396;-69
2022/06/01 06:03:18;;;;;;;10.70;9.00;;;;;;;;;;732514;189;922425;-70
2022/06/01 06:08:15;;;;;;;9.50;8.13;;;;;;;;;;730329;190;919736;-69
2022/06/01 06:10:42;;;;;;;9.83;7.47;;;;;;;;;;735319;189;915677;-68
2022/06/01 06:13:07;;;;;;;8.20;7.13;;;;;;;;;;729499;189;916337;-68
2022/06/01 06:15:32;;;;;;;11.83;8.40;;;;;;;;;;727893;189;916414;-68
2022/06/01 06:17:58;;;;;;;7.00;6.03;;;;;;;;;;733767;189;914929;-68
2022/06/01 06:20:24;;;;;;;5.30;3.90;;;;;;;;;;726784;189;915849;-68
2022/06/01 06:22:50;;;;;;;6.43;5.80;;;;;;;;;;726672;189;915408;-69
2022/06/01 06:25:16;;;;;;;7.17;5.30;;;;;;;;;;730240;190;919520;-68
2022/06/01 06:27:42;;;;;;;4.10;3.07;;;;;;;;;;728436;190;918749;-68
2022/06/01 06:30:08;;;;;;;4.20;3.27;;;;;;;;;;726225;190;1117855;-68
2022/06/01 06:32:34;;;;;;;4.70;2.90;;;;;;;;;;725054;190;917278;-68
2022/06/01 06:35:00;;;;;;;4.90;2.70;;;;;;;;;;731048;190;919394;-68
2022/06/01 06:37:26;;;;;;;3.47;2.63;;;;;;;;;;726939;191;919059;-67
2022/06/01 06:39:51;;;;;;;2.90;2.60;;;;;;;;;;727731;189;919471;-67
2022/06/01 06:42:17;;;;;;;5.30;3.23;;;;;;;;;;733654;191;1024278;-69
2022/06/01 06:44:43;;;;;;;4.40;3.30;;;;;;;;;;728427;191;919460;-68
2022/06/01 06:47:09;;;;;;;4.90;3.23;;;;;;;;;;719438;190;918960;-69
2022/06/01 06:49:35;;;;;;;2.97;2.53;;;;;;;;;;729963;191;919393;-69
2022/06/01 06:52:01;;;;;;;4.78;3.30;;;;;;;;;;726632;191;918021;-70
2022/06/01 06:54:27;;;;;;;3.90;3.47;;;;;;;;;;725118;191;919113;-69
2022/06/01 06:56:52;;;;;;;3.50;3.13;;;;;;;;;;726161;191;920658;-67
2022/06/01 06:59:18;;;;;;;4.07;2.90;;;;;;;;;;732235;189;918842;-70
2022/06/01 07:01:44;;;;;;;4.90;3.37;;;;;;;;;;727508;189;920573;-70
2022/06/01 07:04:10;;;;;;;5.65;3.10;;;;;;;;;;727293;191;919309;-71
2022/06/01 07:06:36;;;;;;;4.70;3.30;;;;;;;;;;731641;191;897734;-70
2022/06/01 07:09:02;;;;;;;3.03;2.40;;;;;;;;;;729427;190;918896;-72
2022/06/01 07:11:28;;;;;;;4.47;3.70;;;;;;;;;;730217;189;918488;-72
2022/06/01 07:13:53;;;;;;;4.07;3.50;;;;;;;;;;734029;190;920240;-73
2022/06/01 07:16:19;;;;;;;4.40;3.20;;;;;;;;;;732224;190;918331;-73
2022/06/01 07:18:45;;;;;;;4.67;4.00;;;;;;;;;;729782;190;918566;-72
2022/06/01 07:21:11;;;;;;;6.10;4.43;;;;;;;;;;727763;189;918747;-71
2022/06/01 07:23:37;;;;;;;3.90;3.50;;;;;;;;;;736158;190;918791;-73
2022/06/01 07:26:02;;;;;;;4.73;4.10;;;;;;;;;;730194;191;1019626;-72
2022/06/01 07:28:28;;;;;;;4.80;4.30;;;;;;;;;;731290;190;629793;-71
2022/06/01 07:30:56;;;;;;;5.57;4.17;;;;;;;;;;734258;189;634608;-73
2022/06/01 07:33:20;;;;;;;5.93;5.30;;;;;;;;;;730619;189;624078;-72
2022/06/01 07:35:47;;;;;;;5.40;4.77;;;;;;;;;;723431;190;917809;-75
2022/06/01 07:43:16;;;;;;;6.37;4.43;;;;;;;;;;723596;190;918796;-73
2022/06/01 07:45:44;;;;;;;5.97;4.40;;;;;;;;;;727680;189;951229;-74
2022/06/01 07:48:11;;;;;;;4.80;4.40;;;;;;;;;;738702;191;918914;-77
2022/06/01 07:50:37;;;;;;;5.63;4.90;;;;;;;;;;727292;191;920582;-72
2022/06/01 07:53:02;;;;;;;4.40;3.73;;;;;;;;;;729799;190;919122;-75
2022/06/01 07:55:28;;;;;;;3.80;3.17;;;;;;;;;;730890;191;922222;-73
2022/06/01 07:57:54;;;;;;;3.70;3.10;;;;;;;;;;725756;191;919054;-72
2022/06/01 08:00:20;;;;;;;4.00;2.80;;;;;;;;;;725324;190;918423;-73
2022/06/01 08:02:46;;;;;;;5.50;3.30;;;;;;;;;;725849;191;918582;-76
2022/06/01 08:05:13;;;;;;;6.60;3.53;;;;;;;;;;732370;192;922799;-75
2022/06/01 08:07:38;;;;;;;9.43;4.53;;;;;;;;;;729477;189;920670;-75
2022/06/01 08:10:04;;;;;;;6.70;4.37;;;;;;;;;;731865;187;918551;-73
2022/06/01 08:15:01;;;;;;;5.67;3.70;;;;;;;;;;743068;190;630145;-72
2022/06/01 08:17:27;;;;;;;8.27;3.42;;;;;;;;;;727854;189;918668;-76
2022/06/01 08:19:53;;;;;;;4.80;3.43;;;;;;;;;;732364;187;919548;-77
2022/06/01 08:22:19;;;;;;;6.50;3.10;;;;;;;;;;734779;188;918509;-75
2022/06/01 08:24:45;;;;;;;5.73;4.00;;;;;;;;;;728637;189;916834;-75
2022/06/01 08:27:10;;;;;;;4.05;3.62;;;;;;;;;;727914;189;1045843;-75
2022/06/01 08:29:37;;;;;;;3.57;3.27;;;;;;;;;;738757;190;919325;-74
2022/06/01 08:32:02;;;;;;;3.62;3.08;;;;;;;;;;725994;189;918397;-75
2022/06/01 08:34:29;;;;;;;3.90;3.10;;;;;;;;;;735087;189;856479;-76
2022/06/01 08:36:54;;;;;;;4.30;3.20;;;;;;;;;;731446;188;920314;-76
2022/06/01 08:39:20;;;;;;;3.23;2.67;;;;;;;;;;738297;190;915517;-76
2022/06/01 08:41:46;;;;;;;3.17;2.77;;;;;;;;;;729614;190;912526;-75
2022/06/01 08:44:27;;;;;;;6.20;2.93;;;;;;;;;;732739;190;927400;-77
2022/06/01 08:46:53;;;;;;;4.13;2.80;;;;;;;;;;730263;190;912686;-78
2022/06/01 08:49:20;;;;;;;4.53;3.00;;;;;;;;;;729756;191;808145;-80
2022/06/01 08:51:45;;;;;;;5.77;2.70;;;;;;;;;;729218;191;862043;-76
2022/06/01 08:54:11;;;;;;;3.33;2.57;;;;;;;;;;727518;189;821437;-77
2022/06/01 08:56:37;;;;;;;4.53;2.80;;;;;;;;;;736946;189;813991;-76
2022/06/01 08:59:06;;;;;;;3.40;2.80;;;;;;;;;;731010;191;816860;-78
2022/06/01 09:01:32;;;;;;;4.23;2.70;;;;;;;;;;729190;188;812519;-77
2022/06/01 09:04:04;;;;;;;3.77;3.07;;;;;;;;;;728902;189;812285;-78
2022/06/01 09:06:30;;;;;;;4.00;3.47;;;;;;;;;;735721;187;914157;-77
2022/06/01 09:08:58;;;;;;;6.90;3.63;;;;;;;;;;725147;191;918545;-76
2022/06/01 09:11:32;;;;;;;5.67;3.33;;;;;;;;;;735197;191;919284;-76
2022/06/01 09:14:03;;;;;;;5.93;3.60;;;;;;;;;;731217;190;918817;-76
2022/06/01 09:16:29;;;;;;;6.37;4.20;;;;;;;;;;732468;191;1021193;-79
2022/06/01 09:18:54;;;;;;;3.90;3.17;;;;;;;;;;729164;191;919417;-75
2022/06/01 09:23:52;;;;;;;4.30;3.13;;;;;;;;;;733651;191;750002;-76
2022/06/01 09:26:22;;;;;;;5.13;3.40;;;;;;;;;;732917;189;918458;-76
2022/06/01 09:28:48;;;;;;;5.40;3.33;;;;;;;;;;732017;189;919756;-76
2022/06/01 09:31:18;;;;;;;5.10;3.30;;;;;;;;;;734000;187;919707;-74
2022/06/01 09:33:43;;;;;;;5.30;3.77;;;;;;;;;;719398;191;917767;-73
2022/06/01 09:36:11;;;;;;;7.87;3.93;;;;;;;;;;733539;190;917843;-75
2022/06/01 09:38:55;;;;;;;4.73;3.70;;;;;;;;;;720636;190;920409;-76
2022/06/01 09:41:24;;;;;;;6.60;3.27;;;;;;;;;;731166;189;945458;-74
2022/06/01 09:43:49;;;;;;;3.63;2.67;;;;;;;;;;735911;189;811821;-74
2022/06/01 09:46:21;;;;;;;4.50;3.23;;;;;;;;;;733607;190;918770;-75
2022/06/01 09:48:47;;;;;;;4.03;3.27;;;;;;;;;;734571;190;919164;-76
2022/06/01 09:51:14;;;;;;;4.93;3.00;;;;;;;;;;728543;190;919231;-75
2022/06/01 09:53:40;;;;;;;4.90;3.40;;;;;;;;;;725306;189;920221;-74
2022/06/01 09:56:05;;;;;;;3.43;2.63;;;;;;;;;;733921;187;918978;-77
2022/06/01 10:06:09;;;;;;;12.90;3.37;;;;;;;;;;732365;190;918728;-75
2022/06/01 10:08:42;;;;;;;4.97;3.83;;;;;;;;;;733532;190;919100;-75
2022/06/01 10:11:02;;;;;;;4.10;3.07;;;;;;;;;;726934;189;919019;-76
2022/06/01 10:13:36;;;;;;;4.13;2.37;;;;;;;;;;725415;190;917183;-75
2022/06/01 10:16:06;;;;;;;4.70;2.37;;;;;;;;;;735465;189;918623;-77
2022/06/01 10:18:31;;;;;;;3.70;2.70;;;;;;;;;;733071;191;917864;-78
2022/06/01 10:21:00;;;;;;;3.53;2.30;;;;;;;;;;725022;188;919055;-76
2022/06/01 10:23:26;;;;;;;3.13;2.33;;;;;;;;;;728755;189;919442;-73
2022/06/01 10:25:52;;;;;;;4.60;2.30;;;;;;;;;;733192;191;928527;-77
2022/06/01 10:28:18;;;;;;;9.07;2.50;;;;;;;;;;732731;189;918181;-75
2022/06/01 10:30:44;;;;;;;4.90;2.67;;;;;;;;;;729660;189;917380;-74
2022/06/01 10:33:10;;;;;;;3.80;2.37;;;;;;;;;;730818;189;918516;-72
2022/06/01 10:35:36;;;;;;;3.10;2.37;;;;;;;;;;730796;189;917609;-75
2022/06/01 10:38:02;;;;;;;6.67;2.50;;;;;;;;;;727192;191;918998;-78
2022/06/01 10:40:28;;;;;;;4.33;3.10;;;;;;;;;;728411;189;918963;-74
2022/06/01 10:45:26;;;;;;;4.07;2.53;;;;;;;;;;730777;189;919180;-74
2022/06/01 10:47:54;;;;;;;3.70;2.60;;;;;;;;;;730093;189;1123881;-74
2022/06/01 10:50:19;;;;;;;4.60;2.70;;;;;;;;;;726163;189;918723;-72
2022/06/01 10:52:48;;;;;;;4.30;2.20;;;;;;;;;;731112;190;919054;-71
2022/06/01 10:55:23;;;;;;;4.67;2.43;;;;;;;;;;726185;190;918849;-74
2022/06/01 10:57:48;;;;;;;5.27;2.80;;;;;;;;;;727708;189;918780;-74
2022/06/01 11:00:14;;;;;;;4.73;3.00;;;;;;;;;;729651;189;918012;-75
2022/06/01 11:02:57;;;;;;;7.70;2.80;;;;;;;;;;732822;190;917376;-79
2022/06/01 11:05:25;;;;;;;7.90;3.17;;;;;;;;;;744732;189;816580;-76
2022/06/01 11:08:04;;;;;;;4.13;2.50;;;;;;;;;;731496;190;816747;-76
2022/06/01 11:10:45;;;;;;;5.30;2.60;;;;;;;;;;729487;189;918407;-75
2022/06/01 11:13:17;;;;;;;5.83;2.60;;;;;;;;;;728490;190;951244;-78
2022/06/01 11:15:43;;;;;;;4.33;3.13;;;;;;;;;;728500;189;916090;-75
2022/06/01 11:18:18;;;;;;;4.07;2.57;;;;;;;;;;739112;190;917949;-78
2022/06/01 11:20:59;;;;;;;3.87;2.40;;;;;;;;;;735468;190;917685;-73
2022/06/01 11:23:31;;;;;;;4.60;2.97;;;;;;;;;;739896;189;916921;-78
2022/06/01 11:25:58;;;;;;;4.47;2.53;;;;;;;;;;731042;189;918215;-77
2022/06/01 11:28:27;;;;;;;3.47;2.40;;;;;;;;;;729337;189;918679;-76
2022/06/01 11:31:05;;;;;;;3.30;2.60;;;;;;;;;;731538;190;813113;-78
2022/06/01 11:33:32;;;;;;;4.90;2.93;;;;;;;;;;729878;189;914382;-78
2022/06/01 11:35:57;;;;;;;3.77;2.20;;;;;;;;;;730680;189;899787;-77
2022/06/01 11:38:26;;;;;;;3.57;2.00;;;;;;;;;;724472;191;915431;-79
2022/06/01 11:40:53;;;;;;;6.60;2.40;;;;;;;;;;727066;189;914638;-80
2022/06/01 11:43:27;;;;;;;3.13;2.20;;;;;;;;;;732964;190;915008;-80
2022/06/01 11:45:52;;;;;;;5.70;2.60;;;;;;;;;;728969;190;915405;-78
2022/06/01 11:48:19;;;;;;;5.27;2.47;;;;;;;;;;733312;190;914881;-79
2022/06/01 11:50:44;;;;;;;2.90;2.20;;;;;;;;;;726652;190;876505;-76
2022/06/01 11:53:10;;;;;;;4.40;2.20;;;;;;;;;;730233;191;913894;-76
2022/06/01 11:55:43;;;;;;;3.77;2.30;;;;;;;;;;728756;191;636629;-80
2022/06/01 11:58:09;;;;;;;4.93;2.40;;;;;;;;;;731428;190;811830;-77
2022/06/01 12:00:35;;;;;;;3.53;2.23;;;;;;;;;;735284;190;810868;-78
2022/06/01 12:03:01;;;;;;;3.77;2.50;;;;;;;;;;731115;189;942407;-76
2022/06/01 12:05:29;;;;;;;3.10;2.37;;;;;;;;;;730132;187;916325;-77
2022/06/01 12:07:55;;;;;;;3.80;2.20;;;;;;;;;;728142;190;911442;-75
2022/06/01 12:10:22;;;;;;;2.80;2.00;;;;;;;;;;734067;189;620653;-75
2022/06/01 12:12:54;;;;;;;6.37;2.70;;;;;;;;;;734426;190;674622;-81
2022/06/01 12:15:20;;;;;;;3.20;2.30;;;;;;;;;;736567;190;639163;-77
2022/06/01 12:17:51;;;;;;;3.00;2.03;;;;;;;;;;732981;189;781402;-77
2022/06/01 12:20:17;;;;;;;3.63;2.40;;;;;;;;;;737351;190;628189;-78
2022/06/01 12:28:35;;;;;;;3.07;1.90;;;;;;;;;;730059;189;918656;-75
2022/06/01 12:30:47;;;;;;;4.00;2.33;;;;;;;;;;729361;190;910498;-74
2022/06/01 12:33:12;;;;;;;5.67;2.60;;;;;;;;;;730297;189;918172;-75
2022/06/01 12:35:41;;;;;;;5.00;2.40;;;;;;;;;;734151;191;918254;-78
2022/06/01 12:38:08;;;;;;;3.90;2.67;;;;;;;;;;729264;189;815487;-78
2022/06/01 12:40:33;;;;;;;2.90;2.17;;;;;;;;;;731961;190;681354;-79
2022/06/01 12:43:00;;;;;;;4.63;2.30;;;;;;;;;;730193;189;623025;-77
2022/06/01 12:45:25;;;;;;;5.70;2.17;;;;;;;;;;733813;191;630660;-79
2022/06/01 12:47:51;;;;;;;5.00;2.40;;;;;;;;;;730398;189;629460;-79
2022/06/01 12:50:17;;;;;;;3.53;2.33;;;;;;;;;;724672;189;919138;-79
2022/06/01 12:52:43;;;;;;;4.23;2.17;;;;;;;;;;729961;191;917649;-76
2022/06/01 12:55:10;;;;;;;4.57;2.20;;;;;;;;;;734513;189;631475;-81
2022/06/01 12:57:37;;;;;;;3.20;2.27;;;;;;;;;;734139;191;643624;-76
2022/06/01 13:00:11;;;;;;;7.20;2.57;;;;;;;;;;732224;189;711169;-74
2022/06/01 13:02:37;;;;;;;3.33;2.30;;;;;;;;;;731944;191;824005;-80
2022/06/01 13:05:04;;;;;;;5.37;2.30;;;;;;;;;;727117;189;913865;-75
2022/06/01 13:07:30;;;;;;;3.10;2.33;;;;;;;;;;726892;189;922640;-81
2022/06/01 13:09:57;;;;;;;11.60;2.40;;;;;;;;;;736426;189;916003;-75
2022/06/01 13:12:23;;;;;;;4.90;2.10;;;;;;;;;;730176;190;649837;-78
2022/06/01 13:14:49;;;;;;;5.00;3.00;;;;;;;;;;732163;190;632489;-77
2022/06/01 13:17:15;;;;;;;3.13;2.03;;;;;;;;;;730473;190;628353;-81
2022/06/01 13:19:42;;;;;;;3.30;2.47;;;;;;;;;;736772;187;630910;-75
2022/06/01 13:22:11;;;;;;;5.90;2.37;;;;;;;;;;732303;189;652686;-77
2022/06/01 13:24:42;;;;;;;3.90;2.70;;;;;;;;;;730029;189;620728;-79
2022/06/01 13:27:08;;;;;;;4.32;2.20;;;;;;;;;;732461;190;629554;-78
2022/06/01 13:29:35;;;;;;;4.03;2.03;;;;;;;;;;744202;187;629780;-77
2022/06/01 13:32:01;;;;;;;3.40;2.43;;;;;;;;;;732438;189;619396;-75
2022/06/01 13:34:32;;;;;;;4.40;2.30;;;;;;;;;;728823;190;628837;-76
2022/06/01 13:37:04;;;;;;;4.47;2.13;;;;;;;;;;733482;189;652255;-77
2022/06/01 13:39:30;;;;;;;4.00;2.70;;;;;;;;;;736765;190;638959;-75
2022/06/01 13:41:56;;;;;;;3.30;2.33;;;;;;;;;;732265;191;646067;-77
2022/06/01 13:44:27;;;;;;;3.37;2.27;;;;;;;;;;729395;190;630193;-77
2022/06/01 13:46:53;;;;;;;3.43;2.70;;;;;;;;;;737819;189;625375;-75
2022/06/01 13:49:19;;;;;;;4.10;2.60;;;;;;;;;;732135;187;917103;-76
2022/06/01 13:51:45;;;;;;;4.10;1.63;;;;;;;;;;727726;191;616318;-76
2022/06/01 13:54:17;;;;;;;3.20;2.30;;;;;;;;;;729621;191;636122;-75
2022/06/01 13:56:43;;;;;;;3.10;2.30;;;;;;;;;;742317;187;617408;-73
2022/06/01 13:59:10;;;;;;;5.80;2.10;;;;;;;;;;729498;189;637179;-74
2022/06/01 14:01:36;;;;;;;4.10;2.80;;;;;;;;;;732542;190;631826;-73
2022/06/01 14:04:02;;;;;;;3.97;2.70;;;;;;;;;;731877;191;634846;-73
2022/06/01 14:06:31;;;;;;;6.03;2.73;;;;;;;;;;733657;190;630634;-72
2022/06/01 14:08:57;;;;;;;4.33;2.27;;;;;;;;;;732069;189;642283;-72
2022/06/01 14:11:24;;;;;;;7.23;2.33;;;;;;;;;;728289;191;646535;-74
2022/06/01 14:13:49;;;;;;;4.33;2.70;;;;;;;;;;734781;190;628339;-75
2022/06/01 14:16:15;;;;;;;3.00;2.20;;;;;;;;;;731117;190;651982;-74
2022/06/01 14:18:40;;;;;;;4.53;2.80;;;;;;;;;;730246;191;625772;-72
2022/06/01 14:21:06;;;;;;;3.70;2.47;;;;;;;;;;735412;188;649346;-72
2022/06/01 14:23:32;;;;;;;3.43;2.53;;;;;;;;;;732526;189;637013;-73
2022/06/01 14:28:30;;;;;;;4.83;1.90;;;;;;;;;;730965;189;624152;-78
2022/06/01 14:30:55;;;;;;;5.33;2.30;;;;;;;;;;734762;190;631315;-72
2022/06/01 14:33:21;;;;;;;5.83;2.77;;;;;;;;;;734017;190;623430;-72
2022/06/01 14:35:47;;;;;;;5.57;2.53;;;;;;;;;;738094;190;630494;-73
2022/06/01 14:38:13;;;;;;;3.43;2.43;;;;;;;;;;733063;189;918634;-72
2022/06/01 14:40:39;;;;;;;4.77;2.33;;;;;;;;;;733385;190;919205;-74
2022/06/01 14:43:05;;;;;;;4.00;2.67;;;;;;;;;;736075;190;630978;-74
2022/06/01 14:45:31;;;;;;;3.07;2.40;;;;;;;;;;736817;189;624150;-72
2022/06/01 14:47:56;;;;;;;4.03;2.30;;;;;;;;;;727724;190;652470;-72
2022/06/01 14:50:22;;;;;;;3.93;2.37;;;;;;;;;;729035;190;621320;-73
2022/06/01 14:52:48;;;;;;;3.37;2.57;;;;;;;;;;733897;191;631146;-73
2022/06/01 14:55:14;;;;;;;4.47;2.20;;;;;;;;;;736465;189;619132;-71
2022/06/01 14:57:40;;;;;;;2.93;2.30;;;;;;;;;;729411;189;699374;-73
2022/06/01 15:00:06;;;;;;;3.63;2.60;;;;;;;;;;729309;189;624736;-73
2022/06/01 15:02:32;;;;;;;6.40;2.57;;;;;;;;;;734836;191;635440;-71
2022/06/01 15:05:01;;;;;;;3.43;2.70;;;;;;;;;;732473;191;624620;-74